Time;durP1;ratioP1;P1;durP2;ratioP2;P2;SDS_P1;SDS_P2;PMS_P1;PMS_P2;Temp;Humidity;BMP_temperature;BMP_pressure;BME280_temperature;BME280_humidity;BME280_pressure;Samples;Min_cycle;Max_cycle;Signal;HPM_P1;HPM_P2
2023/08/01 00:00:10;;;;;;;0.75;0.52;;;;;;;;;;6215756;23;20001;-66
2023/08/01 00:02:36;;;;;;;0.70;0.25;;;;;;;;;;6215808;23;20000;-67
2023/08/01 00:05:03;;;;;;;1.48;0.75;;;;;;;;;;6215348;23;20000;-67
2023/08/01 00:07:30;;;;;;;3.20;1.23;;;;;;;;;;6214199;23;20012;-66
2023/08/01 00:09:57;;;;;;;1.67;0.68;;;;;;;;;;6215737;23;20001;-65
2023/08/01 00:12:25;;;;;;;1.33;0.52;;;;;;;;;;6207535;23;20047;-67
2023/08/01 00:14:52;;;;;;;0.50;0.40;;;;;;;;;;6209866;23;20027;-67
2023/08/01 00:17:18;;;;;;;1.52;0.90;;;;;;;;;;6208214;23;20026;-66
2023/08/01 00:19:45;;;;;;;1.33;0.80;;;;;;;;;;6209946;23;20419;-66
2023/08/01 00:22:12;;;;;;;12.75;0.82;;;;;;;;;;6214648;23;20142;-68
2023/08/01 00:24:39;;;;;;;2.50;0.98;;;;;;;;;;6215133;23;20004;-66
2023/08/01 00:27:09;;;;;;;12.90;0.98;;;;;;;;;;6215218;23;20428;-67
2023/08/01 00:29:35;;;;;;;13.27;1.38;;;;;;;;;;6213911;23;20044;-66
2023/08/01 00:32:02;;;;;;;2.78;1.40;;;;;;;;;;6215490;23;20087;-66
2023/08/01 00:34:29;;;;;;;1.20;0.90;;;;;;;;;;6210167;23;20063;-66
2023/08/01 00:36:56;;;;;;;6.43;1.83;;;;;;;;;;6208052;23;20016;-66
2023/08/01 00:39:22;;;;;;;2.72;1.48;;;;;;;;;;6209732;23;20301;-67
2023/08/01 00:41:49;;;;;;;1.92;0.88;;;;;;;;;;6208951;23;20094;-66
2023/08/01 00:44:16;;;;;;;0.45;0.45;;;;;;;;;;6214086;23;20001;-66
2023/08/01 00:46:43;;;;;;;0.52;0.50;;;;;;;;;;6215394;23;20015;-66
2023/08/01 00:49:10;;;;;;;0.75;0.50;;;;;;;;;;6215457;23;20008;-66
2023/08/01 00:51:37;;;;;;;1.67;0.80;;;;;;;;;;6216006;23;20004;-66
2023/08/01 00:54:04;;;;;;;1.20;0.63;;;;;;;;;;6213679;23;20361;-66
2023/08/01 00:56:30;;;;;;;1.30;0.45;;;;;;;;;;6210845;23;20420;-66
2023/08/01 00:58:57;;;;;;;0.43;0.32;;;;;;;;;;6209256;23;20005;-66
2023/08/01 01:01:24;;;;;;;2.05;0.95;;;;;;;;;;6209515;23;20001;-66
2023/08/01 01:03:51;;;;;;;1.83;0.98;;;;;;;;;;6207314;23;20060;-66
2023/08/01 01:06:23;;;;;;;1.63;0.80;;;;;;;;;;6213189;23;20012;-65
2023/08/01 01:08:50;;;;;;;2.73;1.10;;;;;;;;;;6215325;23;20442;-65
2023/08/01 01:11:17;;;;;;;4.33;1.57;;;;;;;;;;6215360;23;20051;-66
2023/08/01 01:13:44;;;;;;;3.80;1.40;;;;;;;;;;6214505;23;20054;-65
2023/08/01 01:16:10;;;;;;;3.03;1.33;;;;;;;;;;6214850;23;20012;-66
2023/08/01 01:18:37;;;;;;;9.10;1.73;;;;;;;;;;6209341;23;20070;-66
2023/08/01 01:21:05;;;;;;;3.40;1.00;;;;;;;;;;6207294;23;20012;-67
2023/08/01 01:23:33;;;;;;;1.63;1.23;;;;;;;;;;6207694;23;20009;-66
2023/08/01 01:25:59;;;;;;;2.20;1.00;;;;;;;;;;6209073;23;20070;-66
2023/08/01 01:28:27;;;;;;;2.20;1.03;;;;;;;;;;6210914;23;20373;-65
2023/08/01 01:30:54;;;;;;;0.77;0.70;;;;;;;;;;6214422;23;20393;-66
2023/08/01 01:33:21;;;;;;;0.97;0.73;;;;;;;;;;6215213;23;20450;-66
2023/08/01 01:35:48;;;;;;;1.73;1.30;;;;;;;;;;6215260;23;20007;-66
2023/08/01 01:38:15;;;;;;;1.73;1.00;;;;;;;;;;6214761;23;20324;-66
2023/08/01 01:40:42;;;;;;;20.73;1.03;;;;;;;;;;6211280;23;20009;-66
2023/08/01 01:43:09;;;;;;;1.10;0.67;;;;;;;;;;6208885;23;20020;-66
2023/08/01 01:45:36;;;;;;;0.97;0.57;;;;;;;;;;6207275;23;20020;-66
2023/08/01 01:48:03;;;;;;;1.50;0.80;;;;;;;;;;6208583;23;20001;-66
2023/08/01 01:50:30;;;;;;;1.47;0.93;;;;;;;;;;6211931;23;20004;-66
2023/08/01 01:52:56;;;;;;;0.53;0.37;;;;;;;;;;6213400;23;20009;-65
2023/08/01 01:55:23;;;;;;;2.73;0.97;;;;;;;;;;6214665;23;20412;-67
2023/08/01 01:57:50;;;;;;;2.13;1.27;;;;;;;;;;6214614;23;20096;-67
2023/08/01 02:00:17;;;;;;;4.70;1.30;;;;;;;;;;6214815;23;20011;-66
2023/08/01 02:02:44;;;;;;;4.93;0.97;;;;;;;;;;6211833;23;20072;-66
2023/08/01 02:05:11;;;;;;;1.90;0.80;;;;;;;;;;6208096;23;20409;-65
2023/08/01 02:07:37;;;;;;;1.60;1.00;;;;;;;;;;6208551;23;20336;-66
2023/08/01 02:10:04;;;;;;;0.87;0.53;;;;;;;;;;6207230;23;20009;-66
2023/08/01 02:12:31;;;;;;;0.97;0.73;;;;;;;;;;6210882;23;20331;-65
2023/08/01 02:14:59;;;;;;;1.40;0.93;;;;;;;;;;6214889;23;20005;-66
2023/08/01 02:17:25;;;;;;;2.13;1.17;;;;;;;;;;6214766;23;20055;-65
2023/08/01 02:19:52;;;;;;;1.20;0.80;;;;;;;;;;6214551;23;20432;-65
2023/08/01 02:22:19;;;;;;;0.50;0.50;;;;;;;;;;6214288;23;20005;-65
2023/08/01 02:24:46;;;;;;;1.07;0.90;;;;;;;;;;6211589;23;20004;-65
2023/08/01 02:27:13;;;;;;;3.63;1.20;;;;;;;;;;6207405;23;20005;-66
2023/08/01 02:29:40;;;;;;;0.93;0.73;;;;;;;;;;6208425;23;20015;-66
2023/08/01 02:32:07;;;;;;;1.93;1.10;;;;;;;;;;6208779;23;20432;-65
2023/08/01 02:34:34;;;;;;;2.43;1.00;;;;;;;;;;6208693;23;20004;-65
2023/08/01 02:37:00;;;;;;;17.23;1.73;;;;;;;;;;6214468;23;20005;-66
2023/08/01 02:39:27;;;;;;;1.07;0.80;;;;;;;;;;6214738;23;20012;-65
2023/08/01 02:41:54;;;;;;;4.13;1.10;;;;;;;;;;6214609;23;20447;-66
2023/08/01 02:44:21;;;;;;;0.60;0.50;;;;;;;;;;6214659;23;20154;-65
2023/08/01 02:46:47;;;;;;;1.67;0.87;;;;;;;;;;6211408;23;20012;-66
2023/08/01 02:49:14;;;;;;;1.43;0.77;;;;;;;;;;6208600;23;20007;-65
2023/08/01 02:51:41;;;;;;;5.90;0.90;;;;;;;;;;6208411;23;20011;-66
2023/08/01 02:54:08;;;;;;;0.90;0.70;;;;;;;;;;6208716;23;20008;-66
2023/08/01 02:56:35;;;;;;;1.53;0.83;;;;;;;;;;6208855;23;20001;-66
2023/08/01 02:59:04;;;;;;;1.20;0.50;;;;;;;;;;6214736;23;20012;-65
2023/08/01 03:01:31;;;;;;;1.53;0.87;;;;;;;;;;6214496;23;20085;-65
2023/08/01 03:03:58;;;;;;;2.93;0.63;;;;;;;;;;6213970;23;20012;-65
2023/08/01 03:06:24;;;;;;;0.77;0.70;;;;;;;;;;6214875;23;20012;-66
2023/08/01 03:08:51;;;;;;;0.63;0.53;;;;;;;;;;6213037;23;20005;-65
2023/08/01 03:11:18;;;;;;;1.23;0.60;;;;;;;;;;6206509;23;20335;-65
2023/08/01 03:13:45;;;;;;;1.13;0.63;;;;;;;;;;6208460;23;20009;-65
2023/08/01 03:16:12;;;;;;;5.50;1.57;;;;;;;;;;6208535;23;20056;-66
2023/08/01 03:18:38;;;;;;;3.83;1.40;;;;;;;;;;6208991;23;20062;-65
2023/08/01 03:21:05;;;;;;;1.13;0.80;;;;;;;;;;6214110;23;20075;-66
2023/08/01 03:23:32;;;;;;;0.70;0.60;;;;;;;;;;6214409;23;20004;-65
2023/08/01 03:25:59;;;;;;;1.30;0.73;;;;;;;;;;6214331;23;20051;-65
2023/08/01 03:28:27;;;;;;;2.33;1.20;;;;;;;;;;6211835;23;20010;-65
2023/08/01 03:30:54;;;;;;;5.03;1.10;;;;;;;;;;6213162;23;20012;-66
2023/08/01 03:33:21;;;;;;;2.57;1.23;;;;;;;;;;6208250;23;20004;-66
2023/08/01 03:35:48;;;;;;;2.07;1.17;;;;;;;;;;6208423;23;20012;-68
2023/08/01 03:38:15;;;;;;;1.83;0.63;;;;;;;;;;6208349;23;20012;-69
2023/08/01 03:40:42;;;;;;;1.27;0.70;;;;;;;;;;6210119;23;20005;-70
2023/08/01 03:43:10;;;;;;;1.67;0.90;;;;;;;;;;6215576;23;20063;-70
2023/08/01 03:45:37;;;;;;;2.00;0.93;;;;;;;;;;6215618;23;20016;-71
2023/08/01 03:48:04;;;;;;;0.67;0.43;;;;;;;;;;6216256;23;20492;-71
2023/08/01 03:50:31;;;;;;;1.20;0.70;;;;;;;;;;6216010;23;20008;-70
2023/08/01 03:52:58;;;;;;;1.00;0.80;;;;;;;;;;6215408;23;20083;-70
2023/08/01 03:55:25;;;;;;;0.57;0.50;;;;;;;;;;6208365;23;20367;-68
2023/08/01 03:57:51;;;;;;;1.57;0.63;;;;;;;;;;6210058;23;20005;-70
2023/08/01 04:00:19;;;;;;;1.97;0.80;;;;;;;;;;6210140;23;20011;-68
2023/08/01 04:02:46;;;;;;;0.93;0.77;;;;;;;;;;6209648;23;20004;-70
2023/08/01 04:05:12;;;;;;;4.27;1.40;;;;;;;;;;6215561;23;20004;-69
2023/08/01 04:07:39;;;;;;;0.70;0.50;;;;;;;;;;6214033;23;20013;-67
2023/08/01 04:10:06;;;;;;;0.50;0.50;;;;;;;;;;6215693;23;20005;-67
2023/08/01 04:12:34;;;;;;;1.57;1.00;;;;;;;;;;6213823;23;20004;-67
2023/08/01 04:15:01;;;;;;;2.83;1.00;;;;;;;;;;6213948;23;20005;-68
2023/08/01 04:17:29;;;;;;;2.27;1.30;;;;;;;;;;6209956;23;20009;-67
2023/08/01 04:19:56;;;;;;;3.37;0.90;;;;;;;;;;6209741;23;20028;-68
2023/08/01 04:22:23;;;;;;;6.53;1.90;;;;;;;;;;6209666;23;20439;-67
2023/08/01 04:24:50;;;;;;;3.57;1.40;;;;;;;;;;6209861;23;20004;-67
2023/08/01 04:27:17;;;;;;;4.20;1.77;;;;;;;;;;6214400;23;20083;-68
2023/08/01 04:29:44;;;;;;;1.77;0.83;;;;;;;;;;6215395;23;20048;-68
2023/08/01 04:32:13;;;;;;;0.93;0.80;;;;;;;;;;6214141;23;20032;-69
2023/08/01 04:34:40;;;;;;;2.83;1.20;;;;;;;;;;6213570;23;20009;-69
2023/08/01 04:37:07;;;;;;;1.43;0.80;;;;;;;;;;6214111;23;20008;-69
2023/08/01 04:39:34;;;;;;;1.37;0.90;;;;;;;;;;6208472;23;20004;-69
2023/08/01 04:42:01;;;;;;;25.17;1.67;;;;;;;;;;6208474;23;20503;-68
2023/08/01 04:44:29;;;;;;;1.83;0.63;;;;;;;;;;6209576;23;20446;-69
2023/08/01 04:46:55;;;;;;;1.93;0.97;;;;;;;;;;6207585;23;20016;-68
2023/08/01 04:49:24;;;;;;;1.57;1.00;;;;;;;;;;6213718;23;20324;-68
2023/08/01 04:51:51;;;;;;;1.30;0.70;;;;;;;;;;6213019;23;20008;-67
2023/08/01 04:54:17;;;;;;;0.93;0.60;;;;;;;;;;6213841;23;20016;-68
2023/08/01 04:56:44;;;;;;;0.87;0.60;;;;;;;;;;6215199;23;20074;-68
2023/08/01 04:59:11;;;;;;;1.97;1.00;;;;;;;;;;6215402;23;20001;-68
2023/08/01 05:01:38;;;;;;;1.13;0.77;;;;;;;;;;6210695;23;20055;-69
2023/08/01 05:04:05;;;;;;;1.23;0.60;;;;;;;;;;6209168;23;20051;-69
2023/08/01 05:06:31;;;;;;;8.20;1.00;;;;;;;;;;6209020;23;20041;-68
2023/08/01 05:08:58;;;;;;;3.27;1.70;;;;;;;;;;6207837;23;20496;-69
2023/08/01 05:11:25;;;;;;;0.90;0.70;;;;;;;;;;6211053;23;20039;-68
2023/08/01 05:13:52;;;;;;;1.63;0.83;;;;;;;;;;6215261;23;20009;-68
2023/08/01 05:16:19;;;;;;;1.87;1.10;;;;;;;;;;6215263;23;20000;-67
2023/08/01 05:18:45;;;;;;;0.53;0.50;;;;;;;;;;6215218;23;20032;-68
2023/08/01 05:21:12;;;;;;;2.43;0.83;;;;;;;;;;6213501;23;20450;-67
2023/08/01 05:23:39;;;;;;;3.17;1.07;;;;;;;;;;6211326;23;20367;-68
2023/08/01 05:26:06;;;;;;;0.73;0.67;;;;;;;;;;6209028;23;20013;-68
2023/08/01 05:28:32;;;;;;;0.63;0.63;;;;;;;;;;6208824;23;20011;-67
2023/08/01 05:30:59;;;;;;;1.27;0.80;;;;;;;;;;6209242;23;20008;-67
2023/08/01 05:33:26;;;;;;;3.13;1.00;;;;;;;;;;6212117;23;20001;-67
2023/08/01 05:35:53;;;;;;;0.77;0.50;;;;;;;;;;6215030;23;20004;-68
2023/08/01 05:38:19;;;;;;;4.27;0.87;;;;;;;;;;6214942;23;20134;-68
2023/08/01 05:40:46;;;;;;;0.50;0.50;;;;;;;;;;6215037;23;20001;-68
2023/08/01 05:43:13;;;;;;;3.30;0.83;;;;;;;;;;6213279;23;20004;-68
2023/08/01 05:45:40;;;;;;;1.33;0.80;;;;;;;;;;6211154;23;20724;-67
2023/08/01 05:48:06;;;;;;;1.33;0.67;;;;;;;;;;6209367;23;20005;-68
2023/08/01 05:50:33;;;;;;;1.63;0.90;;;;;;;;;;6207399;23;20500;-67
2023/08/01 05:53:00;;;;;;;0.67;0.47;;;;;;;;;;6208836;23;20062;-67
2023/08/01 05:55:27;;;;;;;2.27;0.87;;;;;;;;;;6209630;23;20012;-67
2023/08/01 05:57:53;;;;;;;1.03;0.77;;;;;;;;;;6213181;23;20058;-70
2023/08/01 06:00:23;;;;;;;0.83;0.47;;;;;;;;;;6213258;23;20009;-70
2023/08/01 06:02:50;;;;;;;1.27;0.83;;;;;;;;;;6214764;23;20439;-68
2023/08/01 06:05:17;;;;;;;1.13;0.60;;;;;;;;;;6213097;23;20071;-68
2023/08/01 06:07:44;;;;;;;0.53;0.37;;;;;;;;;;6212069;23;20012;-69
2023/08/01 06:10:11;;;;;;;0.87;0.43;;;;;;;;;;6208684;23;20376;-70
2023/08/01 06:12:37;;;;;;;0.47;0.37;;;;;;;;;;6208337;23;20005;-70
2023/08/01 06:15:05;;;;;;;0.60;0.50;;;;;;;;;;6208740;23;20009;-70
2023/08/01 06:17:31;;;;;;;1.10;0.60;;;;;;;;;;6210165;23;20007;-69
2023/08/01 06:19:58;;;;;;;0.80;0.53;;;;;;;;;;6214625;23;20416;-70
2023/08/01 06:22:25;;;;;;;3.40;0.70;;;;;;;;;;6214702;23;20151;-70
2023/08/01 06:24:52;;;;;;;0.73;0.43;;;;;;;;;;6214766;23;20000;-70
2023/08/01 06:27:18;;;;;;;2.23;0.90;;;;;;;;;;6214607;23;20015;-69
2023/08/01 06:29:45;;;;;;;0.87;0.60;;;;;;;;;;6212066;23;20079;-70
2023/08/01 06:32:12;;;;;;;1.50;0.67;;;;;;;;;;6208371;23;20005;-70
2023/08/01 06:34:39;;;;;;;1.90;0.80;;;;;;;;;;6206665;23;20060;-70
2023/08/01 06:37:06;;;;;;;0.57;0.40;;;;;;;;;;6208192;23;20005;-70
2023/08/01 06:39:33;;;;;;;0.40;0.30;;;;;;;;;;6209672;23;20324;-70
2023/08/01 06:41:59;;;;;;;2.07;0.67;;;;;;;;;;6214384;23;20001;-70
2023/08/01 06:44:26;;;;;;;0.47;0.43;;;;;;;;;;6214958;23;20004;-70
2023/08/01 06:46:53;;;;;;;0.40;0.40;;;;;;;;;;6212730;23;20049;-70
2023/08/01 06:49:20;;;;;;;1.77;1.00;;;;;;;;;;6214568;23;20058;-70
2023/08/01 06:51:46;;;;;;;2.77;0.67;;;;;;;;;;6211258;23;20011;-69
2023/08/01 06:54:13;;;;;;;1.70;0.97;;;;;;;;;;6208105;23;20007;-69
2023/08/01 06:56:42;;;;;;;0.23;0.23;;;;;;;;;;6208392;23;20019;-70
2023/08/01 06:59:09;;;;;;;0.80;0.53;;;;;;;;;;6208420;23;20087;-70
2023/08/01 07:01:40;;;;;;;1.27;0.57;;;;;;;;;;6209275;23;20001;-70
2023/08/01 07:04:07;;;;;;;0.80;0.40;;;;;;;;;;6212611;23;20420;-70
2023/08/01 07:06:34;;;;;;;0.27;0.27;;;;;;;;;;6214425;23;20020;-70
2023/08/01 07:09:00;;;;;;;1.60;0.60;;;;;;;;;;6212409;23;20043;-70
2023/08/01 07:11:27;;;;;;;0.93;0.60;;;;;;;;;;6212791;23;20087;-71
2023/08/01 07:13:54;;;;;;;0.67;0.60;;;;;;;;;;6211960;23;20009;-70
2023/08/01 07:16:21;;;;;;;0.50;0.43;;;;;;;;;;6210148;23;20004;-70
2023/08/01 07:18:51;;;;;;;1.67;0.50;;;;;;;;;;6208598;23;20005;-70
2023/08/01 07:21:17;;;;;;;0.47;0.40;;;;;;;;;;6210040;23;20079;-69
2023/08/01 07:23:44;;;;;;;0.63;0.43;;;;;;;;;;6209815;23;20011;-69
2023/08/01 07:26:11;;;;;;;0.67;0.30;;;;;;;;;;6214475;23;20028;-70
2023/08/01 07:28:38;;;;;;;1.57;0.83;;;;;;;;;;6214444;23;20017;-70
2023/08/01 07:31:06;;;;;;;1.00;0.60;;;;;;;;;;6214840;23;20458;-70
2023/08/01 07:33:33;;;;;;;1.13;0.73;;;;;;;;;;6214537;23;20012;-70
2023/08/01 07:36:00;;;;;;;0.97;0.60;;;;;;;;;;6213726;23;20013;-70
2023/08/01 07:38:27;;;;;;;3.33;0.50;;;;;;;;;;6209973;23;20371;-70
2023/08/01 07:40:54;;;;;;;0.20;0.20;;;;;;;;;;6207785;23;20005;-69
2023/08/01 07:43:21;;;;;;;1.73;0.97;;;;;;;;;;6209912;23;20004;-70
2023/08/01 07:45:50;;;;;;;2.17;0.83;;;;;;;;;;6207888;23;20017;-70
2023/08/01 07:48:17;;;;;;;2.17;1.17;;;;;;;;;;6216070;23;20348;-70
2023/08/01 07:50:44;;;;;;;0.97;0.63;;;;;;;;;;6216368;23;20007;-70
2023/08/01 07:53:10;;;;;;;1.23;0.70;;;;;;;;;;6214444;23;20009;-70
2023/08/01 07:55:37;;;;;;;1.17;0.83;;;;;;;;;;6215686;23;20001;-70
2023/08/01 07:58:05;;;;;;;1.20;0.60;;;;;;;;;;6216026;23;20001;-70
2023/08/01 08:00:31;;;;;;;11.37;0.47;;;;;;;;;;6208066;23;20015;-70
2023/08/01 08:02:58;;;;;;;1.57;0.97;;;;;;;;;;6208206;23;20004;-69
2023/08/01 08:05:25;;;;;;;0.57;0.40;;;;;;;;;;6208140;23;20017;-70
2023/08/01 08:07:52;;;;;;;0.20;0.20;;;;;;;;;;6209609;23;20000;-70
2023/08/01 08:10:18;;;;;;;1.00;0.80;;;;;;;;;;6215211;23;20000;-70
2023/08/01 08:12:45;;;;;;;2.00;0.70;;;;;;;;;;6213915;23;20416;-70
2023/08/01 08:15:13;;;;;;;0.10;0.10;;;;;;;;;;6215302;23;20009;-69
2023/08/01 08:17:40;;;;;;;2.53;0.67;;;;;;;;;;6215821;23;20001;-70
2023/08/01 08:20:07;;;;;;;16.90;0.63;;;;;;;;;;6215698;23;20420;-70
2023/08/01 08:22:34;;;;;;;15.10;0.43;;;;;;;;;;6209924;23;20054;-70
2023/08/01 08:25:00;;;;;;;7.60;0.40;;;;;;;;;;6209006;23;20015;-70
2023/08/01 08:27:27;;;;;;;2.40;0.33;;;;;;;;;;6209548;23;20035;-70
2023/08/01 08:29:55;;;;;;;4.37;0.63;;;;;;;;;;6209141;23;20016;-70
2023/08/01 08:32:21;;;;;;;0.20;0.20;;;;;;;;;;6214117;23;20428;-70
2023/08/01 08:34:48;;;;;;;1.07;0.77;;;;;;;;;;6215546;23;20515;-71
2023/08/01 08:37:15;;;;;;;1.30;0.60;;;;;;;;;;6214113;23;20482;-70
2023/08/01 08:39:41;;;;;;;4.17;0.87;;;;;;;;;;6215586;23;20027;-70
2023/08/01 08:42:08;;;;;;;0.57;0.37;;;;;;;;;;6214135;23;20005;-69
2023/08/01 08:44:39;;;;;;;0.20;0.20;;;;;;;;;;6210346;23;20311;-70
2023/08/01 08:47:07;;;;;;;0.37;0.37;;;;;;;;;;6208466;23;20009;-70
2023/08/01 08:49:34;;;;;;;0.37;0.33;;;;;;;;;;6209315;23;20078;-70
2023/08/01 08:52:02;;;;;;;0.20;0.10;;;;;;;;;;6209075;23;20004;-70
2023/08/01 08:54:30;;;;;;;0.60;0.40;;;;;;;;;;6213612;23;20001;-70
2023/08/01 08:56:57;;;;;;;1.57;0.90;;;;;;;;;;6215340;23;20055;-69
2023/08/01 08:59:24;;;;;;;0.90;0.60;;;;;;;;;;6215418;23;20005;-69
2023/08/01 09:01:51;;;;;;;0.43;0.37;;;;;;;;;;6215182;23;20004;-69
2023/08/01 09:04:18;;;;;;;0.53;0.40;;;;;;;;;;6214770;23;20004;-70
2023/08/01 09:06:50;;;;;;;1.50;0.63;;;;;;;;;;6210272;23;20012;-70
2023/08/01 09:09:18;;;;;;;0.47;0.40;;;;;;;;;;6209211;23;20009;-70
2023/08/01 09:11:46;;;;;;;1.13;0.70;;;;;;;;;;6209139;23;20028;-70
2023/08/01 09:14:13;;;;;;;0.47;0.40;;;;;;;;;;6209122;23;20008;-70
2023/08/01 09:16:43;;;;;;;0.80;0.50;;;;;;;;;;6212979;23;20000;-70
2023/08/01 09:19:10;;;;;;;3.73;0.60;;;;;;;;;;6214734;23;20005;-70
2023/08/01 09:21:40;;;;;;;3.03;0.57;;;;;;;;;;6213635;23;20058;-70
2023/08/01 09:24:14;;;;;;;0.97;0.60;;;;;;;;;;6215177;23;20001;-70
2023/08/01 09:26:41;;;;;;;0.27;0.20;;;;;;;;;;6215286;23;20012;-69
2023/08/01 09:29:08;;;;;;;1.20;0.90;;;;;;;;;;6209307;23;20428;-70
2023/08/01 09:31:36;;;;;;;0.90;0.40;;;;;;;;;;6208693;23;20001;-69
2023/08/01 09:34:06;;;;;;;0.40;0.30;;;;;;;;;;6209047;23;20440;-70
2023/08/01 09:36:35;;;;;;;0.53;0.33;;;;;;;;;;6208226;23;20412;-70
2023/08/01 09:39:03;;;;;;;4.50;0.57;;;;;;;;;;6213412;23;20008;-70
2023/08/01 09:41:31;;;;;;;0.47;0.30;;;;;;;;;;6214927;23;20024;-70
2023/08/01 09:43:58;;;;;;;1.00;0.70;;;;;;;;;;6214886;23;20012;-70
2023/08/01 09:46:25;;;;;;;1.20;0.50;;;;;;;;;;6214456;23;20015;-69
2023/08/01 09:48:51;;;;;;;0.73;0.57;;;;;;;;;;6214500;23;20000;-70
2023/08/01 09:51:19;;;;;;;0.30;0.30;;;;;;;;;;6209912;23;20004;-70
2023/08/01 09:53:48;;;;;;;0.30;0.30;;;;;;;;;;6206610;23;20387;-70
2023/08/01 09:56:22;;;;;;;2.30;0.87;;;;;;;;;;6208735;23;20008;-70
2023/08/01 09:58:49;;;;;;;0.53;0.37;;;;;;;;;;6208588;23;20008;-70
2023/08/01 10:01:17;;;;;;;1.47;0.37;;;;;;;;;;6211015;23;20005;-71
2023/08/01 10:03:50;;;;;;;0.73;0.50;;;;;;;;;;6214836;23;20001;-71
2023/08/01 10:06:21;;;;;;;1.00;0.50;;;;;;;;;;6214530;23;20012;-70
2023/08/01 10:08:48;;;;;;;2.00;0.50;;;;;;;;;;6214830;23;20001;-71
2023/08/01 10:11:16;;;;;;;0.00;0.00;;;;;;;;;;6214588;23;20004;-70
2023/08/01 10:13:43;;;;;;;0.50;0.40;;;;;;;;;;6209286;23;20430;-71
2023/08/01 10:16:14;;;;;;;0.73;0.30;;;;;;;;;;6208225;23;20005;-70
2023/08/01 10:18:41;;;;;;;0.33;0.23;;;;;;;;;;6206815;23;20013;-70
2023/08/01 10:21:14;;;;;;;0.60;0.40;;;;;;;;;;6208464;23;20008;-71
2023/08/01 10:23:42;;;;;;;1.07;0.40;;;;;;;;;;6211899;23;20015;-70
2023/08/01 10:26:10;;;;;;;0.90;0.53;;;;;;;;;;6214528;23;20083;-70
2023/08/01 10:28:38;;;;;;;0.43;0.40;;;;;;;;;;6213990;23;20004;-70
2023/08/01 10:31:15;;;;;;;0.83;0.57;;;;;;;;;;6214944;23;20016;-70
2023/08/01 10:33:43;;;;;;;0.80;0.50;;;;;;;;;;6212975;23;20424;-70
2023/08/01 10:36:29;;;;;;;0.53;0.30;;;;;;;;;;6208556;23;20004;-70
2023/08/01 10:38:58;;;;;;;0.33;0.33;;;;;;;;;;6208077;23;20004;-70
2023/08/01 10:41:32;;;;;;;1.00;0.60;;;;;;;;;;6208084;23;20004;-70
2023/08/01 10:44:09;;;;;;;0.17;0.17;;;;;;;;;;6206818;23;20008;-70
2023/08/01 10:46:49;;;;;;;0.33;0.20;;;;;;;;;;6214362;23;20398;-70
2023/08/01 10:49:16;;;;;;;0.77;0.47;;;;;;;;;;6214151;23;20004;-70
2023/08/01 10:51:44;;;;;;;0.23;0.20;;;;;;;;;;6214982;23;20011;-70
2023/08/01 10:54:23;;;;;;;5.00;0.50;;;;;;;;;;6215047;23;20063;-70
2023/08/01 10:56:51;;;;;;;0.40;0.20;;;;;;;;;;6212974;23;20013;-71
2023/08/01 10:59:18;;;;;;;0.17;0.17;;;;;;;;;;6210019;23;20075;-70
2023/08/01 11:01:46;;;;;;;0.73;0.63;;;;;;;;;;6209881;23;20000;-70
2023/08/01 11:04:20;;;;;;;0.10;0.10;;;;;;;;;;6208612;23;20036;-71
2023/08/01 11:06:47;;;;;;;0.40;0.27;;;;;;;;;;6211390;23;20012;-71
2023/08/01 11:09:18;;;;;;;0.53;0.23;;;;;;;;;;6216569;23;20009;-71
2023/08/01 11:11:45;;;;;;;0.40;0.20;;;;;;;;;;6216402;23;20059;-71
2023/08/01 11:14:13;;;;;;;0.10;0.10;;;;;;;;;;6216119;23;20009;-71
2023/08/01 11:16:40;;;;;;;3.30;0.63;;;;;;;;;;6216390;23;20019;-72
2023/08/01 11:19:18;;;;;;;0.97;0.40;;;;;;;;;;6212085;23;20013;-72
2023/08/01 11:21:45;;;;;;;0.33;0.23;;;;;;;;;;6208066;23;20366;-71
2023/08/01 11:24:12;;;;;;;0.00;0.00;;;;;;;;;;6208588;23;20008;-71
2023/08/01 11:26:43;;;;;;;0.20;0.17;;;;;;;;;;6210544;23;20014;-70
2023/08/01 11:29:10;;;;;;;0.00;0.00;;;;;;;;;;6211116;23;20087;-70
2023/08/01 11:31:37;;;;;;;0.10;0.10;;;;;;;;;;6216335;23;20008;-70
2023/08/01 11:34:03;;;;;;;0.27;0.27;;;;;;;;;;6216107;23;20032;-70
2023/08/01 11:36:30;;;;;;;2.00;0.40;;;;;;;;;;6214452;23;20066;-70
2023/08/01 11:38:58;;;;;;;0.20;0.20;;;;;;;;;;6214687;23;20028;-70
2023/08/01 11:41:27;;;;;;;0.77;0.20;;;;;;;;;;6212311;23;20084;-70
2023/08/01 11:43:56;;;;;;;0.17;0.10;;;;;;;;;;6209468;23;20012;-70
2023/08/01 11:46:24;;;;;;;1.53;0.50;;;;;;;;;;6209882;23;20431;-70
2023/08/01 11:48:50;;;;;;;0.43;0.40;;;;;;;;;;6209939;23;20005;-70
2023/08/01 11:51:18;;;;;;;0.30;0.30;;;;;;;;;;6209852;23;20008;-70
2023/08/01 11:53:44;;;;;;;0.33;0.30;;;;;;;;;;6215955;23;20000;-69
2023/08/01 11:56:21;;;;;;;0.50;0.30;;;;;;;;;;6216069;23;20000;-70
2023/08/01 11:58:48;;;;;;;0.57;0.30;;;;;;;;;;6214286;23;20018;-69
2023/08/01 12:01:15;;;;;;;0.37;0.30;;;;;;;;;;6213868;23;20036;-70
2023/08/01 12:03:53;;;;;;;0.20;0.20;;;;;;;;;;6212033;23;20458;-70
2023/08/01 12:06:21;;;;;;;5.03;0.30;;;;;;;;;;6208110;23;20318;-70
2023/08/01 12:08:48;;;;;;;0.10;0.10;;;;;;;;;;6209707;23;20000;-70
2023/08/01 12:11:22;;;;;;;0.50;0.40;;;;;;;;;;6209173;23;20001;-70
2023/08/01 12:13:49;;;;;;;0.40;0.37;;;;;;;;;;6211605;23;20065;-70
2023/08/01 12:16:19;;;;;;;0.63;0.30;;;;;;;;;;6215849;23;20434;-70
2023/08/01 12:18:48;;;;;;;0.17;0.17;;;;;;;;;;6215812;23;20000;-70
2023/08/01 12:21:14;;;;;;;1.23;0.67;;;;;;;;;;6215905;23;20024;-70
2023/08/01 12:23:41;;;;;;;0.33;0.30;;;;;;;;;;6215270;23;20000;-69
2023/08/01 12:26:08;;;;;;;4.07;0.93;;;;;;;;;;6211271;23;20089;-70
2023/08/01 12:28:35;;;;;;;0.10;0.10;;;;;;;;;;6209205;23;20009;-70
2023/08/01 12:31:03;;;;;;;0.50;0.40;;;;;;;;;;6208324;23;20009;-70
2023/08/01 12:33:30;;;;;;;0.30;0.30;;;;;;;;;;6209555;23;20012;-70
2023/08/01 12:35:57;;;;;;;0.10;0.10;;;;;;;;;;6209476;23;20490;-69
2023/08/01 12:38:24;;;;;;;1.27;0.53;;;;;;;;;;6215581;23;20008;-70
2023/08/01 12:40:51;;;;;;;0.57;0.40;;;;;;;;;;6213549;23;20381;-70
2023/08/01 12:43:18;;;;;;;0.77;0.40;;;;;;;;;;6215627;23;20076;-70
2023/08/01 12:45:44;;;;;;;0.57;0.33;;;;;;;;;;6215300;23;20008;-69
2023/08/01 12:48:11;;;;;;;0.50;0.43;;;;;;;;;;6213451;23;20024;-69
2023/08/01 12:50:38;;;;;;;0.20;0.20;;;;;;;;;;6209193;23;20004;-70
2023/08/01 12:53:05;;;;;;;0.57;0.40;;;;;;;;;;6207475;23;20062;-69
2023/08/01 12:55:32;;;;;;;0.50;0.50;;;;;;;;;;6207943;23;20005;-69
2023/08/01 12:57:59;;;;;;;1.30;0.60;;;;;;;;;;6210129;23;20004;-69
2023/08/01 13:00:28;;;;;;;0.83;0.67;;;;;;;;;;6215270;23;20032;-70
2023/08/01 13:02:54;;;;;;;1.97;0.77;;;;;;;;;;6213575;23;20015;-69
2023/08/01 13:05:21;;;;;;;0.70;0.60;;;;;;;;;;6215320;23;20008;-69
2023/08/01 13:07:49;;;;;;;0.40;0.30;;;;;;;;;;6215313;23;20001;-69
2023/08/01 13:10:16;;;;;;;0.63;0.53;;;;;;;;;;6213594;23;20058;-69
2023/08/01 13:12:43;;;;;;;0.90;0.77;;;;;;;;;;6206705;23;20055;-69
2023/08/01 13:15:10;;;;;;;0.90;0.70;;;;;;;;;;6209017;23;20301;-69
2023/08/01 13:17:37;;;;;;;1.10;0.50;;;;;;;;;;6209066;23;20011;-69
2023/08/01 13:20:04;;;;;;;1.43;0.60;;;;;;;;;;6207782;23;20013;-70
2023/08/01 13:22:31;;;;;;;0.30;0.27;;;;;;;;;;6213392;23;20328;-69
2023/08/01 13:24:58;;;;;;;0.43;0.37;;;;;;;;;;6215189;23;20039;-70
2023/08/01 13:27:24;;;;;;;0.20;0.17;;;;;;;;;;6215135;23;20019;-69
2023/08/01 13:29:53;;;;;;;0.97;0.67;;;;;;;;;;6212877;23;20055;-69
2023/08/01 13:32:20;;;;;;;0.50;0.30;;;;;;;;;;6213784;23;20009;-69
2023/08/01 13:34:47;;;;;;;0.77;0.67;;;;;;;;;;6207071;23;20015;-70
2023/08/01 13:37:14;;;;;;;0.50;0.37;;;;;;;;;;6208934;23;20079;-70
2023/08/01 13:39:41;;;;;;;1.40;0.87;;;;;;;;;;6208866;23;20005;-70
2023/08/01 13:42:08;;;;;;;1.43;1.10;;;;;;;;;;6209327;23;20780;-70
2023/08/01 13:44:34;;;;;;;1.23;0.87;;;;;;;;;;6214734;23;20083;-70
2023/08/01 13:47:03;;;;;;;2.47;0.90;;;;;;;;;;6214799;23;20013;-70
2023/08/01 13:49:30;;;;;;;1.43;0.80;;;;;;;;;;6214924;23;20742;-69
2023/08/01 13:51:56;;;;;;;0.97;0.77;;;;;;;;;;6214933;23;20008;-71
2023/08/01 13:54:23;;;;;;;2.17;1.30;;;;;;;;;;6213875;23;20084;-70
2023/08/01 13:56:50;;;;;;;2.83;1.10;;;;;;;;;;6207478;23;20320;-70
2023/08/01 13:59:17;;;;;;;1.63;1.10;;;;;;;;;;6209086;23;20004;-70
2023/08/01 14:01:44;;;;;;;1.07;0.73;;;;;;;;;;6208093;23;20066;-70
2023/08/01 14:04:13;;;;;;;1.33;0.90;;;;;;;;;;6207128;23;20340;-70
2023/08/01 14:06:43;;;;;;;0.90;0.63;;;;;;;;;;6214646;23;20040;-70
2023/08/01 14:09:10;;;;;;;3.60;0.97;;;;;;;;;;6214787;23;20080;-70
2023/08/01 14:11:37;;;;;;;0.57;0.57;;;;;;;;;;6214405;23;20007;-71
2023/08/01 14:14:04;;;;;;;0.97;0.77;;;;;;;;;;6214469;23;20008;-71
2023/08/01 14:16:31;;;;;;;0.60;0.43;;;;;;;;;;6212506;23;20014;-69
2023/08/01 14:18:59;;;;;;;1.57;0.80;;;;;;;;;;6208549;23;20016;-71
2023/08/01 14:21:25;;;;;;;0.50;0.50;;;;;;;;;;6207068;23;20019;-71
2023/08/01 14:23:52;;;;;;;0.80;0.63;;;;;;;;;;6206528;23;20004;-71
2023/08/01 14:26:19;;;;;;;0.83;0.60;;;;;;;;;;6208194;23;20497;-71
2023/08/01 14:28:46;;;;;;;0.40;0.40;;;;;;;;;;6213843;23;20328;-70
2023/08/01 14:31:13;;;;;;;0.63;0.53;;;;;;;;;;6214503;23;20505;-70
2023/08/01 14:33:39;;;;;;;0.93;0.73;;;;;;;;;;6214155;23;20004;-71
2023/08/01 14:36:15;;;;;;;2.37;0.93;;;;;;;;;;6214441;23;20001;-71
2023/08/01 14:38:42;;;;;;;0.43;0.40;;;;;;;;;;6214429;23;20424;-71
2023/08/01 14:41:09;;;;;;;1.63;0.73;;;;;;;;;;6206505;23;20004;-70
2023/08/01 14:43:35;;;;;;;0.83;0.60;;;;;;;;;;6206860;23;20004;-70